createdAt,value
2022-10-19T00:01:40.034Z,21.88
2022-10-19T00:04:43.288Z,21.98
2022-10-19T00:07:46.662Z,19.90
2022-10-19T00:10:51.657Z,18.60
2022-10-19T00:13:56.317Z,17.58
2022-10-19T00:16:59.802Z,16.63
2022-10-19T00:20:03.382Z,16.92
2022-10-19T00:23:06.771Z,15.75
2022-10-19T00:26:12.238Z,16.98
2022-10-19T00:29:16.151Z,16.42
2022-10-19T00:32:19.461Z,17.52
2022-10-19T00:35:22.926Z,18.58
2022-10-19T00:38:26.498Z,17.63
2022-10-19T00:41:32.816Z,17.88
2022-10-19T00:44:59.714Z,17.85
2022-10-19T00:48:03.224Z,18.23
2022-10-19T00:51:06.497Z,18.88
2022-10-19T00:54:10.668Z,17.02
2022-10-19T00:57:16.162Z,18.13
2022-10-19T01:03:55.196Z,16.42
2022-10-19T01:07:00.018Z,15.93
2022-10-19T01:10:03.698Z,16.10
2022-10-19T01:13:25.368Z,15.32
2022-10-19T01:16:37.015Z,15.55
2022-10-19T01:20:00.644Z,16.25
2022-10-19T01:23:47.926Z,16.05
2022-10-19T01:27:16.351Z,15.10
2022-10-19T01:30:33.318Z,15.32
2022-10-19T01:33:46.891Z,15.73
2022-10-19T01:36:59.308Z,16.33
2022-10-19T01:40:09.344Z,15.27
2022-10-19T01:43:21.377Z,15.75
2022-10-19T01:46:31.433Z,15.70
2022-10-19T01:49:40.174Z,15.60
2022-10-19T01:52:44.608Z,15.20
2022-10-19T01:55:52.240Z,16.92
2022-10-19T01:58:59.138Z,15.73
2022-10-19T02:02:05.336Z,15.70
2022-10-19T02:05:09.922Z,15.48
2022-10-19T02:08:16.070Z,15.30
2022-10-19T02:11:20.669Z,14.88
2022-10-19T02:14:27.537Z,14.32
2022-10-19T02:17:36.742Z,15.02
2022-10-19T02:20:40.436Z,15.35
2022-10-19T02:23:43.748Z,15.10
2022-10-19T02:26:47.236Z,14.65
2022-10-19T02:29:51.010Z,14.25
2022-10-19T02:32:55.863Z,14.00
2022-10-19T02:36:00.974Z,14.50
2022-10-19T02:39:04.989Z,14.77
2022-10-19T02:42:12.287Z,14.77
2022-10-19T02:45:22.939Z,14.27
2022-10-19T02:48:30.833Z,14.45
2022-10-19T02:51:36.123Z,15.70
2022-10-19T02:54:40.541Z,14.50
2022-10-19T02:57:43.969Z,15.25
2022-10-19T03:00:47.198Z,15.48
2022-10-19T03:03:52.133Z,15.55
2022-10-19T03:06:55.311Z,16.27
2022-10-19T03:09:58.792Z,19.85
2022-10-19T03:13:01.981Z,19.20
2022-10-19T03:16:09.939Z,16.55
2022-10-19T03:19:14.874Z,15.48
2022-10-19T03:22:18.099Z,15.70
2022-10-19T03:25:21.513Z,15.65
2022-10-19T03:28:24.729Z,18.63
2022-10-19T03:31:28.136Z,18.08
2022-10-19T03:34:32.899Z,18.35
2022-10-19T03:37:36.452Z,18.58
2022-10-19T03:40:39.867Z,19.70
2022-10-19T03:43:43.283Z,20.10
2022-10-19T03:46:46.502Z,18.98
2022-10-19T03:49:51.535Z,19.27
2022-10-19T03:52:56.565Z,19.45
2022-10-19T03:56:04.926Z,19.17
2022-10-19T03:59:08.743Z,19.92
2022-10-19T04:02:11.914Z,20.25
2022-10-19T04:05:16.810Z,21.23
2022-10-19T04:08:20.280Z,21.45
2022-10-19T04:11:25.845Z,21.58
2022-10-19T04:14:33.322Z,21.23
2022-10-19T04:17:45.630Z,22.25
2022-10-19T04:20:57.807Z,21.63
2022-10-19T04:24:03.599Z,23.08
2022-10-19T04:27:07.092Z,22.08
2022-10-19T04:30:11.164Z,22.98
2022-10-19T04:33:14.515Z,22.67
2022-10-19T04:36:19.511Z,23.63
2022-10-19T04:39:22.769Z,23.15
2022-10-19T04:42:26.140Z,24.05
2022-10-19T04:45:29.477Z,22.98
2022-10-19T04:48:32.915Z,22.52
2022-10-19T04:51:37.621Z,24.95
2022-10-19T04:54:40.800Z,23.00
2022-10-19T04:57:54.439Z,22.73
2022-10-19T05:01:01.912Z,20.42
2022-10-19T05:04:08.804Z,20.90
2022-10-19T05:07:17.784Z,21.30
2022-10-19T05:10:27.417Z,20.52
2022-10-19T05:13:36.920Z,19.42
2022-10-19T05:16:45.029Z,21.10
2022-10-19T05:23:04.763Z,19.40
2022-10-19T05:26:12.977Z,17.65
2022-10-19T05:29:16.394Z,17.60
2022-10-19T05:32:25.331Z,17.55
2022-10-19T05:35:28.713Z,17.38
2022-10-19T05:38:33.563Z,17.00
2022-10-19T05:41:37.199Z,16.25
2022-10-19T05:44:40.496Z,16.83
2022-10-19T05:47:43.990Z,16.80
2022-10-19T05:50:54.426Z,16.35
2022-10-19T05:57:02.533Z,16.52
2022-10-19T06:00:06.773Z,15.48
2022-10-19T06:03:15.545Z,15.65
2022-10-19T06:06:18.920Z,16.10
2022-10-19T06:09:23.701Z,16.25
2022-10-19T06:12:27.125Z,15.02
2022-10-19T06:15:30.364Z,15.07
2022-10-19T06:18:33.634Z,15.35
2022-10-19T06:21:38.682Z,14.20
2022-10-19T06:24:45.479Z,13.27
2022-10-19T06:27:49.055Z,14.73
2022-10-19T06:30:52.538Z,14.13
2022-10-19T06:33:56.075Z,13.23
2022-10-19T06:36:59.552Z,13.75
2022-10-19T06:40:07.059Z,12.82
2022-10-19T06:43:10.746Z,13.73
2022-10-19T06:46:20.242Z,13.23
2022-10-19T06:49:23.497Z,14.50
2022-10-19T06:52:26.889Z,13.10
2022-10-19T06:55:31.739Z,12.75
2022-10-19T06:58:37.503Z,13.15
2022-10-19T07:01:40.791Z,11.20
2022-10-19T07:04:44.063Z,12.32
2022-10-19T07:07:47.463Z,21.77
2022-10-19T07:10:56.227Z,18.45
2022-10-19T07:13:59.578Z,10.77
2022-10-19T07:17:02.846Z,11.20
2022-10-19T07:20:07.293Z,9.73
2022-10-19T07:23:10.523Z,10.10
2022-10-19T07:26:16.756Z,9.38
2022-10-19T07:29:19.975Z,8.93
2022-10-19T07:32:23.161Z,8.98
2022-10-19T07:35:26.520Z,9.35
2022-10-19T07:38:31.491Z,8.93
2022-10-19T07:41:36.788Z,8.95
2022-10-19T07:44:39.994Z,8.45
2022-10-19T07:47:45.697Z,8.45
2022-10-19T07:50:49.590Z,9.07
2022-10-19T07:53:53.002Z,8.48
2022-10-19T07:56:57.843Z,7.32
2022-10-19T08:00:01.066Z,7.53
2022-10-19T08:03:57.160Z,6.35
2022-10-19T08:06:28.302Z,13.30
2022-10-19T08:09:51.943Z,5.90
2022-10-19T08:12:56.346Z,5.72
2022-10-19T08:15:59.546Z,6.22
2022-10-19T08:19:04.190Z,5.70
2022-10-19T08:22:07.414Z,6.07
2022-10-19T08:25:11.089Z,6.97
2022-10-19T08:28:15.764Z,5.95
2022-10-19T08:31:21.790Z,5.95
2022-10-19T08:34:25.373Z,5.88
2022-10-19T08:37:40.677Z,6.45
2022-10-19T08:40:48.516Z,5.57
2022-10-19T08:44:20.453Z,6.35
2022-10-19T08:47:35.858Z,5.82
2022-10-19T08:50:41.845Z,5.45
2022-10-19T08:53:53.798Z,5.25
2022-10-19T08:57:08.605Z,6.10
2022-10-19T09:00:21.783Z,6.05
2022-10-19T09:03:37.640Z,6.07
2022-10-19T09:07:00.807Z,5.55
2022-10-19T09:10:15.803Z,6.45
2022-10-19T09:13:36.458Z,7.07
2022-10-19T09:16:51.847Z,7.70
2022-10-19T09:19:55.178Z,8.98
2022-10-19T09:23:08.692Z,9.18
2022-10-19T09:26:18.260Z,8.38
2022-10-19T09:29:29.304Z,7.82
2022-10-19T09:32:36.676Z,7.32
2022-10-19T09:35:44.281Z,8.25
2022-10-19T09:38:49.211Z,6.97
2022-10-19T09:41:55.778Z,8.55
2022-10-19T09:45:02.095Z,8.32
2022-10-19T09:48:17.589Z,8.13
2022-10-19T09:51:22.227Z,8.07
2022-10-19T09:54:34.944Z,7.45
2022-10-19T09:57:44.249Z,7.53
2022-10-19T10:00:50.549Z,7.45
2022-10-19T10:04:06.642Z,7.38
2022-10-19T10:07:17.306Z,7.55
2022-10-19T10:10:28.070Z,7.07
2022-10-19T10:13:38.804Z,7.40
2022-10-19T10:16:42.190Z,7.68
2022-10-19T10:20:05.821Z,7.18
2022-10-19T10:23:24.763Z,6.57
2022-10-19T10:26:28.788Z,8.93
2022-10-19T10:29:33.956Z,6.28
2022-10-19T10:32:42.203Z,7.78
2022-10-19T10:35:53.838Z,6.05
2022-10-19T10:39:04.286Z,5.80
2022-10-19T10:42:12.470Z,5.50
2022-10-19T10:45:21.841Z,5.32
2022-10-19T10:48:29.774Z,5.13
2022-10-19T10:51:40.586Z,4.97
2022-10-19T10:55:00.172Z,5.10
2022-10-19T10:58:15.164Z,4.23
2022-10-19T11:01:23.087Z,4.28
2022-10-19T11:04:33.310Z,5.28
2022-10-19T11:07:42.825Z,5.22
2022-10-19T11:10:51.412Z,3.73
2022-10-19T11:13:59.914Z,5.63
2022-10-19T11:17:08.230Z,5.43
2022-10-19T11:20:17.292Z,4.90
2022-10-19T11:23:32.197Z,5.28
2022-10-19T11:26:59.329Z,4.00
2022-10-19T11:30:15.240Z,4.20
2022-10-19T11:33:28.932Z,3.95
2022-10-19T11:36:44.042Z,3.90
2022-10-19T11:40:00.270Z,4.00
2022-10-19T11:43:07.963Z,3.40
2022-10-19T11:46:19.198Z,3.40
2022-10-19T11:49:36.107Z,3.85
2022-10-19T11:52:48.474Z,4.05
2022-10-19T11:56:00.655Z,3.88
2022-10-19T11:59:15.073Z,3.88
2022-10-19T12:02:48.637Z,4.43
2022-10-19T12:06:11.865Z,4.88
2022-10-19T12:09:27.359Z,4.90
2022-10-19T12:12:35.299Z,4.95
2022-10-19T12:15:43.834Z,5.03
2022-10-19T12:18:50.158Z,5.20
2022-10-19T12:21:56.842Z,6.55
2022-10-19T12:25:02.401Z,8.35
2022-10-19T12:28:07.536Z,17.38
2022-10-19T12:35:56.670Z,2.97
2022-10-19T12:39:09.017Z,3.95
2022-10-19T12:42:21.480Z,3.47
2022-10-19T12:45:31.574Z,3.50
2022-10-19T12:48:36.388Z,2.75
2022-10-19T12:51:46.862Z,3.20
2022-10-19T12:54:50.285Z,3.17
2022-10-19T12:58:03.601Z,2.75
2022-10-19T13:01:10.225Z,2.45
2022-10-19T13:04:15.565Z,4.28
2022-10-19T13:07:19.984Z,4.50
2022-10-19T13:10:25.987Z,3.10
2022-10-19T13:14:01.625Z,3.38
2022-10-19T13:17:06.384Z,3.63
2022-10-19T13:20:46.894Z,3.92
2022-10-19T13:27:26.178Z,3.30
2022-10-19T13:31:06.968Z,3.10
2022-10-19T13:34:16.616Z,3.20
2022-10-19T13:37:20.617Z,3.10
2022-10-19T13:40:24.926Z,3.03
2022-10-19T13:43:31.505Z,3.20
2022-10-19T13:46:53.601Z,3.22
2022-10-19T13:50:31.939Z,3.70
2022-10-19T13:53:49.349Z,3.67
2022-10-19T13:57:15.747Z,3.50
2022-10-19T14:00:20.903Z,3.10
2022-10-19T14:03:37.372Z,3.53
2022-10-19T14:06:46.358Z,3.53
2022-10-19T14:10:13.367Z,3.25
2022-10-19T14:13:17.264Z,3.60
2022-10-19T14:16:23.862Z,3.10
2022-10-19T14:19:33.445Z,3.78
2022-10-19T14:22:42.217Z,3.90
2022-10-19T14:25:51.932Z,3.67
2022-10-19T14:29:01.529Z,2.72
2022-10-19T14:32:06.261Z,3.70
2022-10-19T14:35:28.668Z,3.55
2022-10-19T14:38:36.280Z,3.50
2022-10-19T14:41:39.772Z,3.78
2022-10-19T14:44:45.315Z,3.53
2022-10-19T14:48:00.347Z,3.33
2022-10-19T14:51:09.683Z,3.55
2022-10-19T14:54:24.184Z,3.40
2022-10-19T14:57:32.764Z,3.42
2022-10-19T15:00:36.323Z,3.67
2022-10-19T15:03:43.920Z,3.58
2022-10-19T15:06:47.444Z,15.57
2022-10-19T15:09:55.367Z,6.43
2022-10-19T15:13:02.781Z,8.77
2022-10-19T15:16:06.195Z,54.10
2022-10-19T15:19:19.222Z,13.70
2022-10-19T15:22:24.265Z,2.17
2022-10-19T15:25:35.374Z,2.65
2022-10-19T15:28:41.717Z,7.70
2022-10-19T15:31:45.206Z,7.78
2022-10-19T15:34:48.573Z,8.60
2022-10-19T15:37:52.368Z,16.17
2022-10-19T15:41:00.646Z,46.72
2022-10-19T15:44:05.326Z,8.18
2022-10-19T15:47:22.734Z,4.50
2022-10-19T15:50:35.586Z,22.10
2022-10-19T15:53:42.244Z,19.48
2022-10-19T15:56:51.897Z,6.43
2022-10-19T15:59:57.070Z,9.23
2022-10-19T16:03:00.906Z,27.38
2022-10-19T16:06:04.529Z,23.75
2022-10-19T16:09:16.942Z,18.25
2022-10-19T16:12:29.870Z,4.13
2022-10-19T16:15:37.891Z,4.45
2022-10-19T16:22:33.800Z,6.25
2022-10-19T16:25:55.324Z,19.95
2022-10-19T16:29:29.696Z,7.88
2022-10-19T16:32:46.121Z,4.82
2022-10-19T16:36:00.565Z,3.05
2022-10-19T16:39:16.987Z,3.88
2022-10-19T16:42:41.750Z,7.75
2022-10-19T16:45:50.681Z,11.18
2022-10-19T16:48:55.011Z,37.70
2022-10-19T16:52:04.864Z,58.45
2022-10-19T16:55:18.224Z,35.88
2022-10-19T16:58:22.613Z,12.70
2022-10-19T17:01:28.312Z,11.70
2022-10-19T17:04:32.433Z,14.20
2022-10-19T17:07:45.254Z,15.00
2022-10-19T17:10:49.606Z,8.90
2022-10-19T17:13:55.050Z,6.22
2022-10-19T17:16:59.839Z,6.97
2022-10-19T17:20:03.885Z,7.22
2022-10-19T17:23:07.531Z,7.05
2022-10-19T17:26:11.760Z,5.90
2022-10-19T17:29:15.777Z,5.18
2022-10-19T17:32:20.666Z,4.45
2022-10-19T17:35:23.965Z,7.03
2022-10-19T17:38:27.185Z,5.90
2022-10-19T17:41:31.406Z,4.45
2022-10-19T17:44:35.209Z,4.68
2022-10-19T17:47:40.107Z,4.60
2022-10-19T17:50:43.542Z,4.93
2022-10-19T17:53:48.700Z,4.50
2022-10-19T17:56:52.083Z,4.60
2022-10-19T17:59:55.538Z,3.95
2022-10-19T18:03:00.389Z,4.22
2022-10-19T18:06:09.736Z,4.90
2022-10-19T18:12:20.460Z,8.55
2022-10-19T18:15:24.068Z,6.70
2022-10-19T18:18:32.487Z,6.22
2022-10-19T18:21:38.508Z,6.47
2022-10-19T18:24:42.101Z,5.70
2022-10-19T18:27:45.460Z,5.10
2022-10-19T18:30:49.474Z,4.57
2022-10-19T18:34:01.877Z,3.67
2022-10-19T18:37:05.708Z,3.95
2022-10-19T18:40:12.056Z,4.78
2022-10-19T18:43:15.803Z,12.02
2022-10-19T18:46:20.622Z,14.68
2022-10-19T18:49:26.371Z,25.83
2022-10-19T18:52:29.914Z,17.55
2022-10-19T18:55:33.235Z,10.00
2022-10-19T18:58:36.900Z,10.75
2022-10-19T19:01:40.928Z,7.60
2022-10-19T19:04:45.678Z,5.40
2022-10-19T19:07:48.994Z,3.97
2022-10-19T19:10:52.332Z,4.45
2022-10-19T19:13:57.796Z,4.55
2022-10-19T19:17:01.138Z,5.80
2022-10-19T19:20:07.099Z,4.55
2022-10-19T19:23:10.500Z,4.13
2022-10-19T19:26:14.942Z,3.53
2022-10-19T19:29:19.022Z,11.85
2022-10-19T19:32:22.514Z,15.55
2022-10-19T19:35:27.407Z,5.65
2022-10-19T19:38:32.360Z,18.88
2022-10-19T19:41:35.982Z,7.05
2022-10-19T19:44:39.404Z,4.72
2022-10-19T19:47:42.957Z,4.30
2022-10-19T19:50:48.544Z,4.13
2022-10-19T19:53:52.077Z,3.20
2022-10-19T19:56:55.623Z,3.35
2022-10-19T19:59:59.399Z,3.42
2022-10-19T20:03:02.983Z,4.47
2022-10-19T20:06:08.440Z,4.43
2022-10-19T20:09:12.698Z,4.28
2022-10-19T20:12:16.302Z,4.88
2022-10-19T20:15:20.275Z,7.85
2022-10-19T20:18:23.646Z,12.52
2022-10-19T20:21:29.098Z,4.68
2022-10-19T20:24:34.228Z,4.68
2022-10-19T20:27:40.290Z,4.60
2022-10-19T20:30:44.532Z,4.75
2022-10-19T20:33:48.425Z,5.13
2022-10-19T20:36:53.526Z,5.00
2022-10-19T20:39:57.223Z,5.75
2022-10-19T20:43:00.670Z,5.30
2022-10-19T20:46:05.396Z,6.70
2022-10-19T20:49:08.909Z,6.63
2022-10-19T20:52:13.941Z,6.45
2022-10-19T20:55:20.117Z,7.18
2022-10-19T20:58:23.572Z,8.30
2022-10-19T21:01:29.924Z,7.47
2022-10-19T21:04:34.090Z,8.27
2022-10-19T21:07:39.094Z,7.68
2022-10-19T21:10:42.601Z,7.32
2022-10-19T21:13:47.099Z,8.13
2022-10-19T21:16:50.539Z,8.32
2022-10-19T21:19:57.228Z,6.85
2022-10-19T21:23:02.116Z,7.03
2022-10-19T21:26:05.693Z,7.05
2022-10-19T21:29:11.114Z,6.78
2022-10-19T21:32:14.702Z,6.78
2022-10-19T21:35:18.146Z,7.28
2022-10-19T21:38:22.929Z,8.20
2022-10-19T21:41:26.632Z,8.95
2022-10-19T21:44:30.070Z,13.60
2022-10-19T21:47:33.899Z,8.85
2022-10-19T21:50:37.506Z,8.02
2022-10-19T21:53:42.348Z,8.57
2022-10-19T21:56:46.363Z,7.60
2022-10-19T21:59:49.634Z,7.68
2022-10-19T22:02:53.054Z,8.45
2022-10-19T22:05:56.607Z,8.40
2022-10-19T22:09:01.370Z,9.35
2022-10-19T22:12:04.925Z,9.25
2022-10-19T22:15:09.124Z,9.15
2022-10-19T22:18:12.662Z,8.77
2022-10-19T22:21:23.125Z,9.35
2022-10-19T22:24:28.425Z,9.88
2022-10-19T22:27:31.759Z,9.15
2022-10-19T22:30:35.030Z,9.10
2022-10-19T22:33:38.315Z,9.88
2022-10-19T22:36:41.689Z,10.32
2022-10-19T22:39:46.280Z,11.27
2022-10-19T22:42:50.056Z,10.57
2022-10-19T22:45:53.375Z,12.32
2022-10-19T22:48:57.307Z,11.43
2022-10-19T22:52:00.837Z,11.60
2022-10-19T22:55:06.090Z,12.07
2022-10-19T22:58:12.946Z,12.07
2022-10-19T23:01:17.365Z,13.05
2022-10-19T23:04:21.200Z,11.90
2022-10-19T23:07:24.667Z,11.82
2022-10-19T23:10:29.352Z,12.20
2022-10-19T23:13:32.551Z,12.52
2022-10-19T23:16:35.767Z,12.90
2022-10-19T23:19:39.380Z,12.75
2022-10-19T23:22:42.552Z,12.23
2022-10-19T23:25:58.266Z,13.43
2022-10-19T23:29:01.653Z,13.25
2022-10-19T23:32:05.405Z,13.27
2022-10-19T23:35:09.865Z,13.55
2022-10-19T23:38:13.123Z,14.25
2022-10-19T23:41:18.891Z,15.13
2022-10-19T23:44:22.068Z,14.95
2022-10-19T23:47:25.388Z,14.13
2022-10-19T23:50:28.740Z,14.02
2022-10-19T23:53:39.898Z,13.90
2022-10-19T23:56:45.969Z,13.82
2022-10-19T23:59:49.177Z,14.98
